createdAt,value
2023-01-17T00:01:05.288Z,42.20
2023-01-17T00:04:02.731Z,44.70
2023-01-17T00:06:55.049Z,47.40
2023-01-17T00:09:56.064Z,49.60
2023-01-17T00:12:32.898Z,48.90
2023-01-17T00:15:26.717Z,53.40
2023-01-17T00:17:57.387Z,46.40
2023-01-17T00:20:48.194Z,43.60
2023-01-17T00:23:43.425Z,46.70
2023-01-17T00:26:17.072Z,46.30
2023-01-17T00:28:47.495Z,47.50
2023-01-17T00:31:23.731Z,50.80
2023-01-17T00:33:56.128Z,47.40
2023-01-17T00:36:28.450Z,44.60
2023-01-17T00:39:27.463Z,44.40
2023-01-17T00:41:55.073Z,46.40
2023-01-17T00:44:41.272Z,52.40
2023-01-17T00:47:57.784Z,51.30
2023-01-17T00:50:55.891Z,43.30
2023-01-17T00:53:45.026Z,48.80
2023-01-17T00:56:39.975Z,46.70
2023-01-17T00:59:41.079Z,71.50
2023-01-17T01:02:32.337Z,63.20
2023-01-17T01:08:22.885Z,53.70
2023-01-17T01:11:11.385Z,42.10
2023-01-17T01:14:02.775Z,41.70
2023-01-17T01:16:54.386Z,43.00
2023-01-17T06:51:47.270Z,51.00
2023-01-17T06:55:55.463Z,52.20
2023-01-17T06:59:56.263Z,63.00
2023-01-17T07:03:08.795Z,47.00
2023-01-17T07:05:43.594Z,47.50
2023-01-17T07:08:17.115Z,43.90
2023-01-17T07:10:46.251Z,48.20
2023-01-17T07:13:13.725Z,48.20
2023-01-17T07:15:41.267Z,53.50
2023-01-17T07:18:13.025Z,39.70
2023-01-17T07:23:13.379Z,59.20
2023-01-17T07:26:02.704Z,83.30
2023-01-17T07:28:39.244Z,55.20
2023-01-17T07:31:08.222Z,52.00
2023-01-17T07:33:44.685Z,37.20
2023-01-17T07:36:25.969Z,49.80
2023-01-17T07:39:24.374Z,50.80
2023-01-17T07:41:54.654Z,255.40
2023-01-17T07:44:48.343Z,75.20
2023-01-17T07:47:18.260Z,56.10
2023-01-17T07:50:01.951Z,34.70
2023-01-17T07:52:50.207Z,44.10
2023-01-17T07:55:19.333Z,38.60
2023-01-17T07:57:50.941Z,63.20
2023-01-17T08:00:47.196Z,352.50
2023-01-17T08:03:19.547Z,194.70
2023-01-17T08:05:55.524Z,179.10
2023-01-17T08:08:30.984Z,84.10
2023-01-17T08:10:58.222Z,63.70
2023-01-17T08:13:36.960Z,53.70
2023-01-17T08:16:08.094Z,68.30
2023-01-17T08:18:35.900Z,61.30
2023-01-17T08:21:13.249Z,41.30
2023-01-17T08:23:57.603Z,30.40
2023-01-17T08:26:33.776Z,32.70
2023-01-17T08:29:04.140Z,57.50
2023-01-17T08:31:40.529Z,57.70
2023-01-17T08:34:17.331Z,47.40
2023-01-17T08:36:44.930Z,77.60
2023-01-17T08:39:14.920Z,65.30
2023-01-17T08:41:45.643Z,62.40
2023-01-17T08:44:14.018Z,48.70
2023-01-17T08:46:49.325Z,46.10
2023-01-17T08:49:25.680Z,59.80
2023-01-17T08:52:07.670Z,43.90
2023-01-17T08:57:04.972Z,41.90
2023-01-17T08:59:34.508Z,33.60
2023-01-17T09:02:06.803Z,31.30
2023-01-17T09:04:49.161Z,64.00
2023-01-17T09:07:17.349Z,57.90
2023-01-17T09:09:45.020Z,62.30
2023-01-17T09:12:12.798Z,58.40
2023-01-17T09:14:45.540Z,55.10
2023-01-17T09:17:14.696Z,45.10
2023-01-17T09:19:47.732Z,52.40
2023-01-17T09:22:15.192Z,54.50
2023-01-17T09:24:42.295Z,52.90
2023-01-17T09:27:09.689Z,34.20
2023-01-17T09:29:36.860Z,34.40
2023-01-17T09:32:04.432Z,44.40
2023-01-17T09:34:33.819Z,38.10
2023-01-17T09:37:01.676Z,39.10
2023-01-17T09:39:31.806Z,34.70
2023-01-17T09:42:19.850Z,37.70
2023-01-17T09:44:51.662Z,31.60
2023-01-17T09:47:20.523Z,38.20
2023-01-17T09:49:47.830Z,36.10
2023-01-17T09:52:17.973Z,38.60
2023-01-17T09:54:46.627Z,39.20
2023-01-17T09:58:05.029Z,50.00
2023-01-17T10:00:54.067Z,45.90
2023-01-17T10:03:40.459Z,54.00
2023-01-17T10:06:36.576Z,56.10
2023-01-17T10:09:24.010Z,52.10
2023-01-17T10:12:06.838Z,30.40
2023-01-17T10:14:53.520Z,45.70
2023-01-17T10:17:36.430Z,39.70
2023-01-17T16:21:33.550Z,132.10
2023-01-17T16:24:01.100Z,156.10
2023-01-17T16:26:29.423Z,180.50
2023-01-17T16:28:56.910Z,140.90
2023-01-17T16:31:27.343Z,108.70
2023-01-17T16:33:58.102Z,118.20
2023-01-17T16:36:25.496Z,120.50
2023-01-17T16:38:53.213Z,128.00
2023-01-17T16:41:22.839Z,124.50
2023-01-17T16:44:02.995Z,125.40
2023-01-17T16:46:30.326Z,139.70
2023-01-17T16:49:00.177Z,118.60
2023-01-17T16:51:27.266Z,137.10
2023-01-17T16:54:06.923Z,113.90
2023-01-17T16:56:34.515Z,113.60
2023-01-17T16:59:02.135Z,124.50
2023-01-17T17:01:32.282Z,132.50
2023-01-17T17:03:59.828Z,139.50
2023-01-17T17:06:27.271Z,109.00
2023-01-17T17:09:01.409Z,113.70
2023-01-17T17:11:28.702Z,120.20
2023-01-17T17:13:55.819Z,132.90
2023-01-17T17:16:32.829Z,130.00
2023-01-17T17:19:07.527Z,134.30
2023-01-17T17:21:35.380Z,138.00
2023-01-17T17:24:07.235Z,144.00
2023-01-17T17:26:35.945Z,119.30
2023-01-17T17:29:04.013Z,150.90
2023-01-17T17:31:31.088Z,144.00
2023-01-17T17:33:59.845Z,148.60
2023-01-17T17:36:27.168Z,178.20
2023-01-17T17:38:57.598Z,162.70
2023-01-17T17:41:28.541Z,168.70
2023-01-17T17:43:55.920Z,173.90
2023-01-17T17:46:24.120Z,149.80
2023-01-17T17:48:53.721Z,160.60
2023-01-17T17:51:34.971Z,161.10
2023-01-17T17:56:30.912Z,147.70
2023-01-17T17:58:58.362Z,135.90
2023-01-17T18:01:25.775Z,161.20
2023-01-17T18:03:54.898Z,128.70
2023-01-17T18:06:22.992Z,76.80
2023-01-17T18:08:52.361Z,94.20
2023-01-17T18:11:22.666Z,102.10
2023-01-17T18:13:52.891Z,78.00
2023-01-17T18:16:25.206Z,92.90
2023-01-17T18:18:54.144Z,114.80
2023-01-17T18:21:25.714Z,66.60
2023-01-17T18:24:15.628Z,80.80
2023-01-17T18:26:52.749Z,98.80
2023-01-17T18:29:20.923Z,122.60
2023-01-17T18:31:50.220Z,144.40
2023-01-17T18:34:24.499Z,130.30
2023-01-17T18:36:52.104Z,105.10
2023-01-17T18:39:20.971Z,79.70
2023-01-17T18:41:48.584Z,82.60
2023-01-17T18:44:16.084Z,101.10
2023-01-17T18:46:43.511Z,88.40
2023-01-17T18:49:11.359Z,100.20
2023-01-17T18:51:38.875Z,97.60
2023-01-17T18:54:07.381Z,90.00
2023-01-17T18:56:35.109Z,74.90
2023-01-17T18:59:05.907Z,83.70
2023-01-17T19:01:35.905Z,75.80
2023-01-17T19:04:04.598Z,78.90
2023-01-17T19:09:15.913Z,91.20
2023-01-17T19:11:47.963Z,100.60
2023-01-17T19:14:17.689Z,90.20
2023-01-17T19:16:45.450Z,94.70
2023-01-17T19:19:17.587Z,88.60
2023-01-17T19:21:45.070Z,86.70
2023-01-17T19:24:13.415Z,90.90
2023-01-17T19:26:44.448Z,92.90
2023-01-17T19:29:11.884Z,94.40
2023-01-17T19:31:46.406Z,81.80
2023-01-17T19:34:23.172Z,92.30
2023-01-17T19:36:50.487Z,88.90
2023-01-17T19:39:17.644Z,92.20
2023-01-17T19:41:45.155Z,99.20
2023-01-17T19:44:13.207Z,97.20
2023-01-17T19:46:43.900Z,99.90
2023-01-17T19:49:12.310Z,82.00
2023-01-17T19:51:42.412Z,89.30
2023-01-17T19:54:12.400Z,97.80
2023-01-17T19:56:39.713Z,105.80
2023-01-17T19:59:10.081Z,102.60
2023-01-17T20:01:37.244Z,111.70
2023-01-17T20:04:05.105Z,111.40
2023-01-17T20:06:40.258Z,90.00
2023-01-17T20:09:09.941Z,93.80
2023-01-17T20:11:38.007Z,95.90
2023-01-17T20:14:05.720Z,114.10
2023-01-17T20:16:35.141Z,125.00
2023-01-17T20:19:03.065Z,125.20
2023-01-17T20:21:31.120Z,126.50
2023-01-17T20:23:59.359Z,99.30
2023-01-17T20:26:31.334Z,112.20
2023-01-17T20:29:01.882Z,118.20
2023-01-17T20:31:30.124Z,131.60
2023-01-17T20:33:57.262Z,148.10
2023-01-17T20:36:26.169Z,138.10
2023-01-17T20:38:54.679Z,193.80
2023-01-17T20:41:31.694Z,113.70
2023-01-17T20:44:00.522Z,127.70
2023-01-17T20:46:29.754Z,143.10
2023-01-17T20:49:01.855Z,146.90
2023-01-17T20:51:29.773Z,135.20
2023-01-17T20:54:00.848Z,164.00
2023-01-17T20:56:30.277Z,144.30
2023-01-17T20:59:00.034Z,114.70
2023-01-17T21:01:33.015Z,133.90
2023-01-17T21:04:00.359Z,157.90
2023-01-17T21:06:37.538Z,177.10
2023-01-17T21:09:08.904Z,169.70
2023-01-17T21:11:39.347Z,191.80
2023-01-17T21:14:09.724Z,194.30
2023-01-17T21:16:37.220Z,159.70
2023-01-17T21:19:04.614Z,158.80
2023-01-17T21:21:32.385Z,164.20
2023-01-17T21:24:05.000Z,163.40
2023-01-17T21:26:32.776Z,151.10
2023-01-17T21:29:03.657Z,151.90
2023-01-17T21:31:34.087Z,148.40
2023-01-17T21:34:03.379Z,112.30
2023-01-17T21:36:33.099Z,117.60
2023-01-17T21:39:04.765Z,123.10
2023-01-17T21:41:37.164Z,136.30
2023-01-17T21:44:08.067Z,135.90
2023-01-17T21:46:39.476Z,130.60
2023-01-17T21:49:08.885Z,134.50
2023-01-17T21:52:02.980Z,103.10
2023-01-17T21:54:52.341Z,112.40
2023-01-17T21:57:39.688Z,120.60
